Nearby METAR Reports

 

LFRV - Vannes-Meucon, FRANCE
Distance from station: NE 28km
Mise à jour: 19/06/2021 16:00
Orage
Orage
 Wind from S
Vent: S 15 km/h
Température: 19°C
Point de rosée: 17°C
Humidité: 88%
Baromètre: 1011 hPa
Clouds: Orage
Visibility: 10 km
Cloud details: nuageux 305 m
nuageux 457 m
nuageux 3048 m
2021/06/19 14:00 LFRV 191400Z AUTO 18008KT 9999 BKN010/// BKN015/// BKN100/// ///TCU 19/17 Q1011
LFRZ - Saint - Nazaire / Montoir, FRANCE
Distance from station: SE 64km
Mise à jour: 19/06/2021 16:00

 Wind from SSE
Vent: SSE 9 km/h
Température: 21°C
Point de rosée: 16°C
Humidité: 73%
Baromètre: 1010 hPa
Visibility: 10 km
2021/06/19 14:00 LFRZ 191400Z AUTO 15005KT 110V210 9999 ////// 21/16 Q1010
 
LFRH - Lorient / Lann- Bihoué, FRANCE
Distance from station: NO 81km
Mise à jour: 19/06/2021 16:00
Pluie, Orage
Pluie, Orage
 Wind from ESE
Vent: ESE 15 km/h
Température: 17°C
Point de rosée: 16°C
Humidité: 94%
Baromètre: 1010 hPa
Résumé: Pluie
Clouds: Orage
Visibility: 6 km
Cloud details: nuageux 213 m
nuageux 335 m
nuageux 579 m
2021/06/19 14:00 LFRH 191400Z AUTO 11008KT 080V140 6000 RA BKN007/// BKN011/// BKN019/// ///CB 17/16 Q1010 TEMPO 2500 TSRA BKN010CB
LFRB - Brest - Guipavas, FRANCE
Distance from station: NO 200km
Mise à jour: 19/06/2021 16:00
Orage
Orage
 Wind from E
Vent: E 9 km/h
Température: 18°C
Point de rosée: 15°C
Humidité: 83%
Baromètre: 1010 hPa
Clouds: Orage
Visibility: 10 km
Cloud details: Peu nuageux 549 m
nuageux 1097 m
Couvert 1280 m
2021/06/19 14:00 LFRB 191400Z AUTO 09005KT 050V120 9999 FEW018/// BKN036/// OVC042/// ///TCU 18/15 Q1010 TEMPO 2000 TSRA BKN020CB
 
LFPV - Villacoublay - Vélizy/, FRANCE
Distance from station: NE 450km
Mise à jour: 19/06/2021 16:00
nuageux
nuageux
 Wind from NNE
Vent: NNE 13 km/h
Température: 25°C
Point de rosée: 18°C
Humidité: 65%
Baromètre: 1011 hPa
Clouds: nuageux
Visibility: 10 km
Cloud details: partiellement nuageux 1158 m
nuageux 1433 m
nuageux 1951 m
2021/06/19 14:00 LFPV 191400Z AUTO 03007KT 330V070 9999 SCT038 BKN047 BKN064 25/18 Q1011
LFRS - Nantes Atlantique, FRANCE
Distance from station: SE 106km
Mise à jour: 19/06/2021 16:00
Clair
Clair
 Wind from S
Vent: S 7 km/h
Température: 21°C
Point de rosée: 16°C
Humidité: 73%
Baromètre: 1011 hPa
Résumé: Clair
Visibility: greater than 10 km
2021/06/19 14:00 LFRS 191400Z AUTO 17004KT 080V220 CAVOK 21/16 Q1011 TEMPO 4500 SHRA BKN012 BKN020CB